Time;durP1;ratioP1;P1;durP2;ratioP2;P2;SDS_P1;SDS_P2;PMS_P1;PMS_P2;Temp;Humidity;BMP_temperature;BMP_pressure;BME280_temperature;BME280_humidity;BME280_pressure;Samples;Min_cycle;Max_cycle;Signal;HPM_P1;HPM_P2
2022/03/14 00:02:25;;;;;;;13.83;10.23;;;10.30;49.10;;;;;;10395552;28;20224;-74
2022/03/14 00:07:26;;;;;;;13.83;9.97;;;10.30;49.20;;;;;;10400548;28;20236;-74
2022/03/14 00:12:28;;;;;;;12.90;10.37;;;10.30;49.10;;;;;;10386146;28;20235;-74
2022/03/14 00:17:29;;;;;;;13.17;9.87;;;10.40;49.10;;;;;;10402106;28;20895;-74
2022/03/14 00:22:30;;;;;;;18.10;10.07;;;10.40;49.10;;;;;;10385190;28;20232;-73
2022/03/14 00:27:31;;;;;;;13.63;9.63;;;10.40;48.70;;;;;;10368805;28;20310;-74
2022/03/14 00:32:32;;;;;;;13.60;10.43;;;10.40;48.80;;;;;;10394527;28;20249;-72
2022/03/14 00:37:33;;;;;;;14.23;9.67;;;10.50;48.80;;;;;;10395393;28;20625;-71
2022/03/14 00:42:44;;;;;;;13.17;10.23;;;10.50;48.90;;;;;;10390002;28;20231;-71
2022/03/14 00:47:44;;;;;;;14.50;9.97;;;10.50;49.30;;;;;;10397008;28;20664;-72
2022/03/14 00:52:46;;;;;;;14.13;9.77;;;10.40;50.10;;;;;;10392587;28;20231;-70
2022/03/14 00:57:46;;;;;;;13.30;10.27;;;10.30;50.90;;;;;;10383840;28;20221;-71
2022/03/14 01:02:50;;;;;;;14.63;10.47;;;10.00;51.90;;;;;;10375705;28;20235;-71
2022/03/14 01:07:55;;;;;;;12.63;9.97;;;9.70;52.40;;;;;;10393461;28;20233;-71
2022/03/14 01:12:58;;;;;;;15.20;10.77;;;9.60;53.10;;;;;;10399440;28;20221;-72
2022/03/14 01:18:00;;;;;;;12.20;10.03;;;9.60;53.80;;;;;;10397903;28;20229;-70
2022/03/14 01:23:06;;;;;;;13.87;10.20;;;9.50;54.00;;;;;;10386689;28;20290;-70
2022/03/14 01:28:06;;;;;;;13.10;10.33;;;9.40;54.10;;;;;;10383436;28;20240;-72
2022/03/14 01:33:07;;;;;;;15.57;10.73;;;9.40;54.20;;;;;;10383092;28;20221;-74
2022/03/14 01:38:08;;;;;;;14.20;10.53;;;9.40;54.80;;;;;;10393937;28;20212;-74
2022/03/14 01:43:11;;;;;;;17.60;10.73;;;9.30;55.20;;;;;;10393995;28;20287;-74
2022/03/14 01:48:12;;;;;;;15.83;11.87;;;9.30;55.00;;;;;;10392712;28;20255;-73
2022/03/14 01:53:13;;;;;;;18.77;11.63;;;9.20;55.50;;;;;;10393171;28;20228;-73
2022/03/14 01:58:16;;;;;;;15.50;11.63;;;9.10;56.20;;;;;;10398238;28;20646;-71
2022/03/14 02:03:17;;;;;;;15.70;11.70;;;8.90;56.70;;;;;;10400400;28;20638;-72
2022/03/14 02:08:17;;;;;;;16.23;12.13;;;8.90;57.30;;;;;;10372446;28;20221;-71
2022/03/14 02:13:18;;;;;;;15.93;11.97;;;8.90;57.70;;;;;;10372384;28;20225;-73
2022/03/14 02:18:18;;;;;;;17.27;12.63;;;8.90;57.90;;;;;;10370683;28;20422;-72
2022/03/14 02:23:20;;;;;;;15.10;11.80;;;8.90;58.20;;;;;;10385246;28;20823;-72
2022/03/14 02:28:22;;;;;;;15.50;11.47;;;8.90;58.80;;;;;;10383068;28;20235;-71
2022/03/14 02:33:23;;;;;;;16.33;12.03;;;9.00;59.60;;;;;;10395727;28;20240;-72
2022/03/14 02:38:24;;;;;;;20.40;12.00;;;9.10;61.20;;;;;;10396043;28;20726;-72
2022/03/14 02:43:25;;;;;;;16.87;10.73;;;9.20;62.10;;;;;;10400653;28;20367;-72
2022/03/14 02:48:30;;;;;;;16.20;11.43;;;9.30;62.30;;;;;;10397521;28;20233;-72
2022/03/14 02:53:31;;;;;;;15.73;10.97;;;9.40;62.70;;;;;;10384180;28;20224;-73
2022/03/14 02:58:32;;;;;;;13.13;10.50;;;9.50;63.30;;;;;;10405715;28;20228;-72
2022/03/14 03:03:34;;;;;;;10.13;8.30;;;9.60;66.00;;;;;;10387992;28;20252;-72
2022/03/14 03:08:35;;;;;;;10.50;6.83;;;9.70;73.60;;;;;;10395033;28;20229;-73
2022/03/14 03:13:36;;;;;;;7.00;4.83;;;9.80;79.30;;;;;;10399763;28;20228;-71
2022/03/14 03:18:37;;;;;;;2.53;2.33;;;9.90;85.80;;;;;;10396419;28;20282;-72
2022/03/14 03:23:39;;;;;;;1.90;1.80;;;10.00;93.40;;;;;;10396774;28;20647;-72
2022/03/14 03:28:40;;;;;;;2.33;1.90;;;10.00;99.90;;;;;;10404332;28;20241;-73
2022/03/14 03:33:40;;;;;;;3.70;1.83;;;9.90;99.90;;;;;;10395615;28;20229;-74
2022/03/14 03:38:41;;;;;;;2.30;2.10;;;9.80;99.90;;;;;;10400411;28;20254;-72
2022/03/14 03:43:42;;;;;;;4.47;3.20;;;9.80;99.90;;;;;;10398800;28;20237;-73
2022/03/14 03:48:42;;;;;;;4.63;3.43;;;9.70;99.90;;;;;;10377902;28;20237;-72
2022/03/14 03:53:43;;;;;;;3.50;3.20;;;9.70;99.90;;;;;;10386730;28;20577;-72
2022/03/14 03:58:44;;;;;;;3.37;2.87;;;9.60;99.90;;;;;;10391288;28;20240;-72
2022/03/14 04:03:51;;;;;;;2.80;2.37;;;9.60;99.90;;;;;;10384162;28;20221;-71
2022/03/14 04:08:52;;;;;;;4.57;2.23;;;9.50;99.90;;;;;;10377632;28;20311;-71
2022/03/14 04:13:58;;;;;;;4.27;2.30;;;9.50;99.90;;;;;;10400772;28;20304;-72
2022/03/14 04:18:58;;;;;;;2.63;2.20;;;9.40;99.90;;;;;;10376400;28;20251;-72
2022/03/14 04:24:01;;;;;;;3.03;2.00;;;9.40;99.90;;;;;;10395385;28;20244;-72
2022/03/14 04:29:05;;;;;;;2.10;1.90;;;9.40;99.90;;;;;;10375312;28;20259;-71
2022/03/14 04:34:10;;;;;;;3.37;2.27;;;9.30;99.90;;;;;;10375012;28;20221;-72
2022/03/14 04:39:10;;;;;;;3.50;2.80;;;9.20;99.90;;;;;;10392855;28;20759;-73
2022/03/14 04:44:11;;;;;;;3.37;2.70;;;9.20;99.90;;;;;;10379553;28;20346;-73
2022/03/14 04:49:14;;;;;;;2.93;2.63;;;9.30;99.90;;;;;;10372477;28;20324;-72
2022/03/14 04:54:15;;;;;;;4.37;2.73;;;9.30;99.90;;;;;;10398442;28;20223;-72
2022/03/14 04:59:16;;;;;;;3.53;2.90;;;9.30;99.90;;;;;;10392365;28;20749;-71
2022/03/14 05:04:18;;;;;;;4.53;3.10;;;9.30;99.90;;;;;;10407798;28;20252;-72
2022/03/14 05:09:18;;;;;;;4.07;3.10;;;9.40;99.90;;;;;;10386656;28;20228;-72
2022/03/14 05:14:19;;;;;;;3.37;2.53;;;9.40;99.90;;;;;;10400834;28;20225;-70
2022/03/14 05:19:19;;;;;;;3.23;2.43;;;9.40;99.90;;;;;;10386610;28;20224;-73
2022/03/14 05:24:20;;;;;;;3.93;2.40;;;9.40;99.90;;;;;;10393282;28;20308;-71
2022/03/14 05:29:21;;;;;;;2.43;2.17;;;9.30;99.90;;;;;;10390536;28;20245;-71
2022/03/14 05:34:21;;;;;;;2.50;2.20;;;9.30;99.90;;;;;;10388350;28;20224;-73
2022/03/14 05:39:22;;;;;;;3.63;2.20;;;9.30;99.90;;;;;;10397371;28;20223;-73
2022/03/14 05:44:26;;;;;;;5.80;2.53;;;9.20;99.90;;;;;;10406947;28;20244;-73
2022/03/14 05:49:27;;;;;;;4.77;2.80;;;9.20;99.90;;;;;;10391229;28;20270;-73
2022/03/14 05:54:27;;;;;;;3.30;2.73;;;9.20;99.90;;;;;;10398180;28;20247;-72
2022/03/14 05:59:28;;;;;;;6.73;3.93;;;9.10;99.90;;;;;;10370144;28;20221;-72
2022/03/14 06:04:29;;;;;;;5.50;3.87;;;9.10;99.90;;;;;;10386903;28;20288;-72
2022/03/14 06:09:29;;;;;;;5.83;3.93;;;9.20;99.90;;;;;;10408092;28;20664;-73
2022/03/14 06:14:30;;;;;;;4.67;3.43;;;9.20;99.90;;;;;;10393721;28;20220;-73
2022/03/14 06:19:30;;;;;;;5.23;3.57;;;9.20;99.90;;;;;;10410356;28;20213;-73
2022/03/14 06:24:31;;;;;;;8.30;4.27;;;9.20;99.90;;;;;;10394658;28;20228;-73
2022/03/14 06:29:32;;;;;;;6.27;4.37;;;9.20;99.90;;;;;;10395426;28;20239;-73
2022/03/14 06:34:32;;;;;;;6.47;4.43;;;9.20;99.90;;;;;;10407881;28;20229;-74
2022/03/14 06:39:37;;;;;;;7.03;6.10;;;9.30;99.90;;;;;;10406640;28;20747;-74
2022/03/14 06:44:39;;;;;;;6.97;5.17;;;9.30;99.90;;;;;;10383796;28;20240;-74
2022/03/14 06:49:42;;;;;;;5.77;4.77;;;9.30;99.90;;;;;;10408470;28;20766;-73
2022/03/14 06:54:43;;;;;;;6.20;4.80;;;9.30;99.90;;;;;;10389898;28;20284;-74
2022/03/14 06:59:45;;;;;;;7.63;5.10;;;9.40;99.90;;;;;;10408187;28;20221;-75
2022/03/14 07:04:46;;;;;;;7.50;4.50;;;9.40;99.90;;;;;;10394417;28;20602;-73
2022/03/14 07:09:46;;;;;;;5.83;4.20;;;9.50;99.90;;;;;;10410474;28;20228;-72
2022/03/14 07:14:47;;;;;;;11.63;4.20;;;9.60;99.90;;;;;;10395386;28;20221;-72
2022/03/14 07:19:48;;;;;;;4.63;3.73;;;9.60;99.90;;;;;;10392990;28;20337;-73
2022/03/14 07:24:48;;;;;;;10.27;4.20;;;9.60;99.90;;;;;;10383932;28;20220;-73
2022/03/14 07:29:49;;;;;;;6.83;3.80;;;9.60;99.90;;;;;;10404986;28;20272;-73
2022/03/14 07:34:49;;;;;;;6.97;3.77;;;9.70;99.90;;;;;;10413103;28;20217;-73
2022/03/14 07:39:50;;;;;;;8.13;4.60;;;9.70;99.90;;;;;;10372079;28;20233;-74
2022/03/14 07:44:50;;;;;;;9.60;5.20;;;9.70;99.90;;;;;;10392564;28;20331;-72
2022/03/14 07:49:53;;;;;;;9.83;5.77;;;9.80;99.90;;;;;;10408025;28;20260;-75
2022/03/14 07:54:53;;;;;;;13.03;6.77;;;9.80;99.90;;;;;;10392122;28;20257;-76
2022/03/14 07:59:54;;;;;;;11.30;6.83;;;9.80;99.90;;;;;;10376772;28;20673;-75
2022/03/14 08:04:55;;;;;;;11.33;6.57;;;10.00;99.90;;;;;;10405313;28;20579;-75
2022/03/14 08:09:55;;;;;;;10.83;6.50;;;10.20;99.90;;;;;;10380702;28;20225;-74
2022/03/14 08:14:56;;;;;;;11.37;6.40;;;10.30;99.90;;;;;;10392914;28;20695;-74
2022/03/14 08:20:00;;;;;;;14.83;6.47;;;10.70;99.90;;;;;;10395519;28;20240;-78
2022/03/14 08:25:00;;;;;;;12.67;7.00;;;11.10;99.90;;;;;;10394180;28;20229;-75
2022/03/14 08:30:04;;;;;;;10.43;6.47;;;11.40;99.90;;;;;;10382597;28;20229;-75
2022/03/14 08:35:07;;;;;;;10.37;6.67;;;11.50;99.90;;;;;;10381854;28;20221;-78
2022/03/14 08:40:11;;;;;;;8.77;6.23;;;11.80;99.90;;;;;;10375215;28;20197;-76
2022/03/14 08:45:16;;;;;;;12.50;6.67;;;12.30;99.90;;;;;;10366155;28;20213;-76
2022/03/14 08:50:18;;;;;;;11.60;6.37;;;12.50;99.90;;;;;;10393265;28;20204;-77
2022/03/14 08:55:19;;;;;;;8.10;4.63;;;12.90;99.90;;;;;;10384027;28;20215;-76
2022/03/14 09:00:24;;;;;;;8.10;4.90;;;13.20;99.90;;;;;;10379830;28;20189;-75
2022/03/14 09:05:25;;;;;;;11.50;5.23;;;13.20;99.90;;;;;;10390062;28;20235;-76
2022/03/14 09:10:28;;;;;;;8.20;4.37;;;13.10;99.90;;;;;;10372176;28;20227;-76
2022/03/14 09:15:30;;;;;;;7.87;4.80;;;13.00;99.90;;;;;;10374192;28;20221;-77
2022/03/14 09:20:39;;;;;;;8.03;5.17;;;12.90;99.90;;;;;;10373624;28;20228;-76
2022/03/14 09:25:41;;;;;;;10.97;6.37;;;12.70;99.90;;;;;;10361364;28;20228;-75
2022/03/14 09:30:43;;;;;;;10.50;5.83;;;12.40;99.90;;;;;;10361895;28;20225;-77
2022/03/14 09:35:44;;;;;;;15.60;6.33;;;12.30;99.90;;;;;;10382382;28;20236;-77
2022/03/14 09:40:46;;;;;;;10.57;5.43;;;12.70;99.90;;;;;;10372891;28;20378;-75
2022/03/14 09:45:49;;;;;;;8.83;4.93;;;14.20;99.90;;;;;;10351323;28;20236;-75
2022/03/14 09:50:53;;;;;;;10.40;4.37;;;15.40;99.90;;;;;;10394234;28;20251;-76
2022/03/14 09:55:57;;;;;;;9.30;4.03;;;16.10;99.90;;;;;;10389659;28;20236;-77
2022/03/14 10:16:26;;;;;;;4.70;3.30;;;25.60;46.90;;;;;;10411305;28;20356;-77
2022/03/14 10:21:35;;;;;;;6.37;4.37;;;24.50;47.40;;;;;;10389385;28;20228;-77
2022/03/14 10:26:43;;;;;;;6.77;4.20;;;21.30;53.60;;;;;;10370588;28;20716;-77
2022/03/14 10:31:54;;;;;;;13.93;4.80;;;19.10;61.50;;;;;;10355609;28;20221;-77
2022/03/14 10:36:59;;;;;;;8.37;5.33;;;17.90;65.00;;;;;;10356625;28;20229;-76
2022/03/14 10:42:03;;;;;;;9.17;4.83;;;17.20;69.90;;;;;;10340633;28;20253;-76
2022/03/14 10:47:06;;;;;;;6.83;4.73;;;17.00;71.10;;;;;;10340560;28;20252;-76
2022/03/14 10:52:13;;;;;;;6.83;4.40;;;16.70;73.40;;;;;;10358447;28;20225;-78
2022/03/14 11:02:28;;;;;;;7.47;4.43;;;23.60;52.50;;;;;;10392242;28;20233;-76
2022/03/14 11:12:56;;;;;;;4.90;4.07;;;20.60;56.10;;;;;;10343815;28;20667;-77
2022/03/14 11:17:58;;;;;;;8.07;4.30;;;18.30;61.50;;;;;;10322369;28;20225;-77
2022/03/14 11:22:59;;;;;;;6.47;3.93;;;16.70;67.80;;;;;;10343174;28;20221;-76
2022/03/14 11:28:01;;;;;;;4.67;3.50;;;15.90;72.00;;;;;;10345899;28;20231;-76
2022/03/14 11:33:03;;;;;;;6.33;4.03;;;15.60;74.00;;;;;;10338015;28;20225;-76
2022/03/14 11:38:05;;;;;;;5.33;3.43;;;15.50;75.40;;;;;;10352179;28;20295;-75
2022/03/14 11:43:09;;;;;;;5.03;3.30;;;15.60;74.90;;;;;;10342603;28;20221;-74
2022/03/14 11:48:10;;;;;;;6.77;3.80;;;15.50;76.40;;;;;;10354278;28;20307;-75
2022/03/14 11:53:27;;;;;;;4.97;3.37;;;15.40;76.00;;;;;;10345460;28;20684;-75
2022/03/14 11:58:33;;;;;;;5.73;3.30;;;15.50;76.90;;;;;;10360914;28;20220;-75
2022/03/14 12:03:42;;;;;;;4.40;3.07;;;15.70;77.30;;;;;;10350519;28;20235;-75
2022/03/14 12:08:53;;;;;;;5.77;3.33;;;15.80;76.00;;;;;;10349447;28;20234;-75
2022/03/14 12:13:53;;;;;;;7.43;3.13;;;15.50;76.40;;;;;;10346947;28;20228;-76
2022/03/14 12:18:57;;;;;;;4.10;3.00;;;15.20;77.40;;;;;;10350376;28;20593;-75
2022/03/14 12:23:58;;;;;;;4.93;3.07;;;15.00;78.80;;;;;;10350486;28;20228;-75
2022/03/14 12:29:35;;;;;;;4.17;2.57;;;15.00;80.00;;;;;;10366068;28;21236;-75
2022/03/14 12:34:36;;;;;;;4.03;2.70;;;15.30;77.30;;;;;;10345212;28;20229;-75
2022/03/14 12:39:37;;;;;;;3.83;2.60;;;15.70;76.60;;;;;;10344124;28;20679;-75
2022/03/14 12:44:40;;;;;;;2.83;2.40;;;16.20;73.40;;;;;;10358034;28;20292;-75
2022/03/14 12:49:41;;;;;;;5.13;2.63;;;16.60;72.90;;;;;;10359402;28;20226;-78
2022/03/14 12:54:44;;;;;;;7.53;2.90;;;16.70;70.30;;;;;;10361756;28;20581;-77
2022/03/14 12:59:48;;;;;;;5.53;2.70;;;16.30;71.40;;;;;;10344563;28;20240;-77
2022/03/14 13:05:00;;;;;;;6.23;2.10;;;16.20;72.90;;;;;;10329098;28;20241;-77
2022/03/14 13:10:09;;;;;;;3.13;2.23;;;15.70;72.70;;;;;;10312876;28;20235;-76
2022/03/14 13:15:11;;;;;;;2.83;2.20;;;15.60;72.50;;;;;;10308052;28;20203;-76
2022/03/14 13:20:26;;;;;;;5.17;2.83;;;15.40;74.10;;;;;;10315851;28;20199;-76
2022/03/14 13:25:35;;;;;;;4.47;3.00;;;15.40;75.50;;;;;;10300409;28;20870;-77
2022/03/14 13:30:44;;;;;;;3.77;2.47;;;15.40;76.70;;;;;;10314278;28;20354;-76
2022/03/14 13:35:46;;;;;;;3.20;2.87;;;15.50;76.40;;;;;;10310309;28;20236;-75
2022/03/14 13:40:48;;;;;;;4.70;2.83;;;15.50;76.80;;;;;;10317978;28;20541;-76
2022/03/14 13:45:51;;;;;;;4.97;2.67;;;15.30;76.60;;;;;;10309944;28;20315;-76
2022/03/14 13:50:53;;;;;;;4.63;2.20;;;15.10;77.10;;;;;;10317906;28;20856;-77
2022/03/14 13:55:57;;;;;;;6.50;2.70;;;15.00;78.20;;;;;;10315083;28;20309;-77
2022/03/14 14:01:00;;;;;;;2.37;2.17;;;15.10;78.20;;;;;;10307652;28;20332;-76
2022/03/14 14:06:30;;;;;;;2.97;2.37;;;15.10;77.90;;;;;;10318451;28;20237;-77
2022/03/14 14:11:34;;;;;;;3.53;2.00;;;15.50;77.00;;;;;;10324585;28;20688;-77
2022/03/14 14:16:39;;;;;;;1.93;1.43;;;15.90;74.20;;;;;;10342256;28;20228;-76
2022/03/14 14:27:02;;;;;;;3.67;1.30;;;16.20;71.20;;;;;;10328991;28;20246;-77
2022/03/14 14:32:16;;;;;;;3.27;1.70;;;16.30;69.00;;;;;;10335748;28;20738;-76
2022/03/14 14:37:18;;;;;;;2.73;1.53;;;16.10;70.00;;;;;;10323575;28;20272;-78
2022/03/14 14:42:21;;;;;;;4.30;2.00;;;15.80;72.00;;;;;;10320094;28;20796;-76
2022/03/14 14:47:25;;;;;;;3.70;1.57;;;15.30;72.40;;;;;;10313213;28;20241;-76
2022/03/14 14:52:27;;;;;;;2.87;1.83;;;14.80;74.90;;;;;;10316486;28;20222;-76
2022/03/14 14:57:28;;;;;;;3.13;1.80;;;14.60;75.10;;;;;;10317512;28;20748;-76
2022/03/14 15:02:31;;;;;;;2.60;1.57;;;14.70;75.90;;;;;;10311376;28;20229;-76
2022/03/14 15:07:34;;;;;;;3.07;1.40;;;15.00;74.70;;;;;;10318158;28;20228;-76
2022/03/14 15:12:34;;;;;;;3.27;1.40;;;15.30;72.60;;;;;;10311179;28;20747;-75
2022/03/14 15:17:54;;;;;;;1.83;1.20;;;15.30;72.10;;;;;;10349690;28;20319;-80
2022/03/14 15:54:22;;;;;;;4.63;1.20;;;14.00;77.10;;;;;;10534942;26;20226;-77
2022/03/14 15:59:33;;;;;;;3.95;1.33;;;14.00;77.40;;;;;;10502624;28;20511;-76
2022/03/14 16:04:46;;;;;;;3.83;1.50;;;13.90;77.40;;;;;;10523313;28;20220;-80
2022/03/14 16:15:04;;;;;;;2.13;1.00;;;13.40;77.50;;;;;;9670017;26;20214;-74
2022/03/14 16:20:07;;;;;;;3.53;1.53;;;13.30;78.20;;;;;;10522295;28;20223;-74
2022/03/14 16:25:08;;;;;;;3.83;1.23;;;13.20;78.30;;;;;;10529464;28;20203;-73
2022/03/14 16:30:08;;;;;;;2.57;1.10;;;13.10;79.70;;;;;;10539430;28;20214;-74
2022/03/14 16:35:09;;;;;;;15.30;8.00;;;13.00;80.70;;;;;;10500190;28;20194;-74
2022/03/14 16:40:10;;;;;;;3.33;1.50;;;12.80;81.90;;;;;;10522101;28;20218;-74
2022/03/14 16:45:11;;;;;;;3.47;1.33;;;12.50;83.00;;;;;;10530365;28;20274;-73
2022/03/14 16:50:13;;;;;;;3.33;1.20;;;12.30;84.10;;;;;;10510625;28;20646;-73
2022/03/14 16:55:14;;;;;;;2.67;1.30;;;12.20;85.50;;;;;;10527531;28;20183;-71
2022/03/14 17:00:16;;;;;;;2.70;1.17;;;12.10;86.80;;;;;;10490808;28;20576;-75
2022/03/14 17:05:17;;;;;;;2.57;1.10;;;11.90;87.70;;;;;;10493852;28;20201;-76
2022/03/14 17:10:36;;;;;;;3.03;1.27;;;11.80;88.70;;;;;;10511459;28;20218;-77
2022/03/14 17:15:39;;;;;;;3.97;1.30;;;11.70;89.60;;;;;;10519214;28;20264;-74
2022/03/14 17:20:40;;;;;;;3.97;1.70;;;11.50;90.30;;;;;;10526675;28;20237;-76
2022/03/14 17:25:41;;;;;;;2.57;1.27;;;11.30;91.00;;;;;;10523398;28;20222;-80
2022/03/14 17:30:43;;;;;;;4.57;1.87;;;11.20;91.80;;;;;;10517156;28;20264;-80
2022/03/14 17:35:46;;;;;;;5.83;2.97;;;11.00;92.60;;;;;;10511775;28;20764;-79
2022/03/14 17:56:31;;;;;;;6.03;3.10;;;10.40;96.00;;;;;;6875254;26;20253;-79
2022/03/14 18:22:30;;;;;;;4.73;2.80;;;9.90;99.90;;;;;;10122363;26;20702;-79
2022/03/14 18:27:32;;;;;;;4.83;2.40;;;9.80;99.90;;;;;;10434237;28;20236;-80
2022/03/14 18:58:43;;;;;;;4.87;2.53;;;9.80;99.90;;;;;;10388175;28;20240;-79
2022/03/14 19:09:06;;;;;;;4.27;2.73;;;9.60;99.90;;;;;;6694090;26;20821;-80
2022/03/14 19:48:37;;;;;;;5.73;3.03;;;9.30;99.90;;;;;;10490422;28;20235;-80
2022/03/14 19:54:25;;;;;;;3.97;2.20;;;9.20;99.90;;;;;;10610615;22;20250;-79
2022/03/14 20:28:56;;;;;;;6.27;4.33;;;8.90;99.90;;;;;;10445574;28;20241;-78
2022/03/14 21:12:40;;;;;;;13.33;6.20;;;8.70;99.90;;;;;;10465095;28;20290;-78
2022/03/14 21:22:58;;;;;;;7.73;4.53;;;8.60;99.90;;;;;;10515345;28;20600;-76
2022/03/14 21:28:02;;;;;;;8.37;4.57;;;8.60;99.90;;;;;;10494294;28;20245;-76
2022/03/14 21:33:24;;;;;;;8.27;3.67;;;8.60;99.90;;;;;;10496661;28;20632;-76
2022/03/14 21:44:21;;;;;;;8.47;3.87;;;8.60;99.90;;;;;;10499783;28;20223;-73
2022/03/14 21:49:21;;;;;;;8.50;4.07;;;8.70;99.90;;;;;;10513419;28;20284;-73
2022/03/14 21:54:22;;;;;;;7.07;3.83;;;8.70;99.90;;;;;;10513092;28;20325;-74
2022/03/14 21:59:23;;;;;;;6.47;3.60;;;8.70;99.90;;;;;;10516037;28;20273;-74
2022/03/14 22:04:24;;;;;;;6.80;3.93;;;8.70;99.90;;;;;;10520233;28;20229;-74
2022/03/14 22:09:25;;;;;;;8.53;5.43;;;8.70;99.90;;;;;;10500524;28;20227;-73
2022/03/14 22:14:28;;;;;;;7.00;3.80;;;8.70;99.90;;;;;;10516066;28;20706;-74
2022/03/14 22:19:29;;;;;;;7.17;3.70;;;8.60;99.90;;;;;;10494099;28;20249;-74
2022/03/14 22:24:29;;;;;;;5.87;3.37;;;8.60;99.90;;;;;;10509951;28;20233;-74
2022/03/14 22:29:30;;;;;;;6.10;3.47;;;8.50;99.90;;;;;;10516495;28;20690;-74
2022/03/14 22:34:31;;;;;;;6.83;3.90;;;8.40;99.90;;;;;;10504174;28;20207;-74
2022/03/14 22:39:32;;;;;;;8.63;3.97;;;8.40;99.90;;;;;;10502631;28;20227;-74
2022/03/14 22:44:42;;;;;;;8.17;3.53;;;8.40;99.90;;;;;;10492963;28;20297;-74
2022/03/14 22:49:43;;;;;;;7.67;3.20;;;8.30;99.90;;;;;;10494783;28;20231;-74
2022/03/14 22:54:45;;;;;;;5.80;3.40;;;8.40;99.90;;;;;;10517251;28;20710;-73
2022/03/14 22:59:47;;;;;;;9.50;3.60;;;8.40;99.90;;;;;;10516577;28;20223;-74
2022/03/14 23:10:07;;;;;;;5.90;2.90;;;8.40;99.90;;;;;;10478530;28;20227;-74
2022/03/14 23:15:09;;;;;;;5.43;3.27;;;8.40;99.90;;;;;;10496682;28;20257;-73
2022/03/14 23:20:13;;;;;;;4.73;3.00;;;8.40;99.90;;;;;;10516146;28;20725;-73
2022/03/14 23:25:14;;;;;;;8.57;5.20;;;8.40;99.90;;;;;;10514527;28;20267;-73
2022/03/14 23:30:15;;;;;;;7.73;5.50;;;8.40;99.90;;;;;;10522240;28;20680;-73
2022/03/14 23:35:15;;;;;;;6.67;3.77;;;8.40;99.90;;;;;;10520479;28;20187;-72
2022/03/14 23:40:16;;;;;;;7.77;3.83;;;8.30;99.90;;;;;;10509365;28;20235;-73
2022/03/14 23:45:17;;;;;;;6.27;3.97;;;8.30;99.90;;;;;;10512257;28;20194;-72
2022/03/14 23:50:18;;;;;;;6.17;4.33;;;8.10;99.90;;;;;;10505765;28;20268;-73
2022/03/14 23:55:31;;;;;;;6.70;4.50;;;7.90;99.90;;;;;;10502969;28;20179;-73
